KINT/INT METAR and TAF weather

Enter ICAO airport designator
Station Type Date Time Source
KINT METAR 2020/01/26 03:54 UTC NOAA

KINT 260354Z AUTO 29003KT 10SM CLR 03/M03 A2999 RMK AO2 SLP157 T00281033


Station Type Date Time Source
KINT Decoded METAR 2020/01/26 03:54 UTC NOAA

WINSTON SALEM SMITH REYNOLDS, NC, United States (KINT) 36-08N 80-14W 291M
Jan 25, 2020 - 10:54 PM EST / 2020.01.26 0354 UTC
Wind: from the WNW (290 degrees) at 3 MPH (3 KT):0
Visibility: 10 mile(s):0
Sky conditions: clear
Temperature: 37.0 F (2.8 C)
Dew Point: 26.1 F (-3.3 C)
Relative Humidity: 64%
Pressure (altimeter): 29.99 in. Hg (1015 hPa)
ob: KINT 260354Z AUTO 29003KT 10SM CLR 03/M03 A2999 RMK AO2 SLP157 T00281033
cycle: 4

Station Type Date Time Source
KINT TAF 2020/01/25 18:22 UTC NOAA

TAF KINT 251720Z 2518/2618 29009KT P6SM SCT040
FM260100 31004KT P6SM SKC

Example: see airport list